createdAt,value
2023-05-09T00:04:15.182Z,178.4
2023-05-09T00:09:14.771Z,179.4
2023-05-09T00:14:15.007Z,176.9
2023-05-09T00:19:14.476Z,176.7
2023-05-09T00:24:13.630Z,177
2023-05-09T00:29:13.208Z,185.6
2023-05-09T00:34:13.197Z,193.8
2023-05-09T00:39:12.503Z,194.1
2023-05-09T00:44:13.159Z,185
2023-05-09T00:49:10.562Z,186.2
2023-05-09T00:54:10.416Z,192.2
2023-05-09T00:59:10.565Z,202.9
2023-05-09T01:04:10.370Z,197.5
2023-05-09T01:09:08.258Z,192
2023-05-09T01:14:08.090Z,196
2023-05-09T01:19:07.345Z,194.8
2023-05-09T01:24:08.117Z,192
2023-05-09T01:29:05.195Z,192.6
2023-05-09T01:34:05.172Z,193.8
2023-05-09T01:39:04.547Z,193.8
2023-05-09T01:44:03.880Z,195.8
2023-05-09T01:49:02.443Z,193.3
2023-05-09T01:54:01.884Z,193.8
2023-05-09T01:59:02.137Z,189.9
2023-05-09T02:12:32.174Z,190.2
2023-05-09T02:25:22.189Z,192
2023-05-09T02:45:18.899Z,189.6
2023-05-09T02:50:18.362Z,192.6
2023-05-09T02:55:18.318Z,199.8
2023-05-09T04:04:21.527Z,205.7
2023-05-09T04:09:20.606Z,205.6
2023-05-09T04:14:21.364Z,196.5
2023-05-09T04:19:20.674Z,197
2023-05-09T04:24:18.784Z,187.2
2023-05-09T04:29:18.561Z,189.8
2023-05-09T04:34:18.029Z,187.8
2023-05-09T04:39:18.913Z,191.9
2023-05-09T04:44:16.442Z,185.6
2023-05-09T04:49:15.921Z,185.5
2023-05-09T04:54:15.370Z,184.8
2023-05-09T04:59:15.256Z,190
2023-05-09T05:04:13.440Z,191.6
2023-05-09T05:09:13.070Z,188.2
2023-05-09T05:14:13.117Z,192.6
2023-05-09T05:19:12.769Z,188.5
2023-05-09T05:24:11.821Z,188.1
2023-05-09T05:29:12.013Z,187.7
2023-05-09T05:34:11.292Z,183.6
2023-05-09T05:39:10.992Z,181.8
2023-05-09T05:44:14.273Z,176.9
2023-05-09T05:49:09.377Z,175.7
2023-05-09T05:54:09.242Z,176
2023-05-09T05:59:11.343Z,173.4
2023-05-09T06:30:37.208Z,164.9
2023-05-09T06:35:26.199Z,160.2
2023-05-09T06:40:25.679Z,172.9
2023-05-09T06:45:24.511Z,190.9
2023-05-09T06:50:23.792Z,187.9
2023-05-09T06:55:24.150Z,187.8
2023-05-09T09:04:17.546Z,169.3
2023-05-09T09:09:15.816Z,153.4
2023-05-09T09:14:16.237Z,166.7
2023-05-09T09:19:16.876Z,150.5
2023-05-09T09:24:16.262Z,151.9
2023-05-09T09:29:13.742Z,155.1
2023-05-09T09:34:13.598Z,138.7
2023-05-09T09:39:12.815Z,156.6
2023-05-09T09:44:12.598Z,148.9
2023-05-09T09:49:11.196Z,130.9
2023-05-09T09:54:10.885Z,132.1
2023-05-09T09:59:11.119Z,150.8
2023-05-09T10:04:10.595Z,128.4
2023-05-09T10:09:10.036Z,128.8
2023-05-09T10:14:09.287Z,113.6
2023-05-09T10:19:09.932Z,123.6
2023-05-09T10:24:08.783Z,150.6
2023-05-09T10:29:09.127Z,139.5
2023-05-09T10:34:06.617Z,144.6
2023-05-09T10:39:06.650Z,150.1
2023-05-09T10:44:07.687Z,152.8
2023-05-09T10:49:04.935Z,146.8
2023-05-09T10:54:03.381Z,131.7
2023-05-09T10:59:03.016Z,140.4
2023-05-09T11:05:25.784Z,142.8
2023-05-09T14:05:03.184Z,128.2
2023-05-09T14:09:09.201Z,117.7
2023-05-09T14:14:07.796Z,117.8
2023-05-09T14:19:07.529Z,107.6
2023-05-09T14:24:07.015Z,121.1
2023-05-09T14:29:05.345Z,125
2023-05-09T14:34:05.101Z,124.2
2023-05-09T14:39:05.188Z,139.9
2023-05-09T14:44:04.602Z,122.6
2023-05-09T14:49:04.070Z,113.3
2023-05-09T14:54:04.650Z,117.1
2023-05-09T14:59:02.907Z,141.5
2023-05-09T15:00:42.801Z,143
2023-05-09T15:05:25.276Z,135.8
2023-05-09T18:04:15.757Z,112.6
2023-05-09T18:09:12.356Z,99.4
2023-05-09T18:14:12.368Z,132.5
2023-05-09T18:19:11.247Z,133.8
2023-05-09T18:24:10.919Z,140.1
2023-05-09T18:29:09.650Z,130.7
2023-05-09T18:34:08.981Z,134.2
2023-05-09T18:39:09.328Z,135.2
2023-05-09T18:44:08.575Z,119.9
2023-05-09T18:49:07.823Z,125.8
2023-05-09T18:54:07.243Z,124.4
2023-05-09T18:59:39.610Z,116.5
2023-05-09T19:00:43.830Z,114.4
2023-05-09T19:45:24.304Z,132.8
2023-05-09T20:09:26.227Z,122.9
2023-05-09T22:04:12.800Z,144.6
2023-05-09T22:09:11.507Z,114.3
2023-05-09T22:14:10.579Z,124.4
2023-05-09T22:19:10.826Z,113.7
2023-05-09T22:24:10.812Z,105.4
2023-05-09T22:29:10.504Z,117.9
2023-05-09T22:34:09.015Z,123.9
2023-05-09T22:39:08.480Z,128.9
2023-05-09T22:44:11.382Z,115.3
2023-05-09T22:49:08.161Z,121.4
2023-05-09T22:54:07.346Z,110.8
2023-05-09T22:59:06.731Z,122.2
2023-05-09T23:10:28.398Z,137.2
2023-05-09T23:25:25.417Z,103.8
2023-05-09T23:30:25.366Z,102
